Valley, NE (68064)

6:02 PM CST on December 20, 2014 (GMT -0600)
APRSWXNET Valley NE US | Change Station
CLOSE
Current Station
Personal Weather Station
Location: Leshara, NE
Elevation: 1312 ft
Nearby Weather Stations

Elev 1312 ft 41.32 °N, 96.37 °W | Updated 31 minutes ago

Overcast
Overcast
33 °F
Feels Like 33 °F
N
0
Wind Variable Wind from ESE
Gusts 0.0 mph

Today
High -- | Low -- °F
--% Chance of Precip.
Yesterday
High -- | Low -- °F
Precip. -- in
7:47 AM 4:58 PM
Waning Crescent, 1% visible
Pressure 30.07 in
Visibility 3.0 miles
Clouds Overcast 400 ft
Windchill 33 °F
Dew Point 33 °F
Humidity 100%
Rainfall -999.00 in
Snow Depth Not available.
UV 0 out of 12
Pollen .10 out of 12
Air Quality Not available.
Flu Activity Not available.
METAR KFET 202355Z AUTO 14006KT 3SM BR OVC004 01/01 A3007 RMK AO2 T00060005 10010 20005

More Conditions Fewer Conditions

Pressure 30.07 in
Visibility 3.0 miles
Clouds Overcast 400 ft
Windchill 33 °F
Dew Point 33 °F
Humidity 100%
Rainfall -999.00 in
Snow Depth Not available.
UV 0 out of 12
Pollen .10 out of 12
Air Quality Not available.
Flu Activity Not available.
METAR KFET 202355Z AUTO 14006KT 3SM BR OVC004 01/01 A3007 RMK AO2 T00060005 10010 20005

More Conditions Fewer Conditions

10-Day Weather Forecast

Almanac

Astronomy

Dec. 20, 2014 Rise Set
Actual Time
Civil Twilight
Nautical Twilight
Astronomical Twilight
Moon
Length of Visible Light
Length of Day
Tomorrow will be .
, % of the Moon is Illuminated

Today's Extremes

State Highs State Lows

Community

WunderPhotos

Upload Photos

1,779,320 photos uploaded!

WunderBlogs® & News

Nearby

Air Quality

  Air Quality AQ Index Pollutant
Not available.

Snow Depth

Station Depth Elevation

Earthquake Activity

City Distance Mag. Time & Date
Minimum magnitude displayed is 2.5.

Coastal Water Temperatures

Place Temperature

Nearby Weather Stations